sensor_id;sensor_type;location;lat;lon;timestamp;P1;durP1;ratioP1;P2;durP2;ratioP2
35522;SDS011;61478;50.820;4.330;2022-10-14T00:01:12;16.17;;;14.27;;
35522;SDS011;61478;50.820;4.330;2022-10-14T00:03:48;15.85;;;13.95;;
35522;SDS011;61478;50.820;4.330;2022-10-14T00:06:16;22.88;;;14.23;;
35522;SDS011;61478;50.820;4.330;2022-10-14T00:08:43;16.08;;;14.38;;
35522;SDS011;61478;50.820;4.330;2022-10-14T00:11:12;15.25;;;13.57;;
35522;SDS011;61478;50.820;4.330;2022-10-14T00:13:40;16.52;;;13.48;;
35522;SDS011;61478;50.820;4.330;2022-10-14T00:16:08;16.88;;;14.15;;
35522;SDS011;61478;50.820;4.330;2022-10-14T00:18:44;15.30;;;12.88;;
35522;SDS011;61478;50.820;4.330;2022-10-14T00:21:10;16.60;;;14.00;;
35522;SDS011;61478;50.820;4.330;2022-10-14T00:23:36;15.85;;;14.13;;
35522;SDS011;61478;50.820;4.330;2022-10-14T00:26:02;15.15;;;13.55;;
35522;SDS011;61478;50.820;4.330;2022-10-14T00:28:28;17.50;;;14.05;;
35522;SDS011;61478;50.820;4.330;2022-10-14T00:30:54;15.07;;;13.48;;
35522;SDS011;61478;50.820;4.330;2022-10-14T00:33:22;15.30;;;12.93;;
35522;SDS011;61478;50.820;4.330;2022-10-14T00:35:58;16.50;;;13.07;;
35522;SDS011;61478;50.820;4.330;2022-10-14T00:38:26;14.52;;;13.00;;
35522;SDS011;61478;50.820;4.330;2022-10-14T00:40:52;13.90;;;12.45;;
35522;SDS011;61478;50.820;4.330;2022-10-14T00:43:20;14.52;;;13.02;;
35522;SDS011;61478;50.820;4.330;2022-10-14T00:45:47;13.82;;;12.35;;
35522;SDS011;61478;50.820;4.330;2022-10-14T00:48:13;13.63;;;12.27;;
35522;SDS011;61478;50.820;4.330;2022-10-14T00:50:40;14.50;;;12.98;;
35522;SDS011;61478;50.820;4.330;2022-10-14T00:53:08;14.77;;;13.27;;
35522;SDS011;61478;50.820;4.330;2022-10-14T00:55:36;14.70;;;12.98;;
35522;SDS011;61478;50.820;4.330;2022-10-14T00:58:03;13.85;;;12.45;;
35522;SDS011;61478;50.820;4.330;2022-10-14T01:00:30;14.65;;;13.02;;
35522;SDS011;61478;50.820;4.330;2022-10-14T01:02:56;14.77;;;13.38;;
35522;SDS011;61478;50.820;4.330;2022-10-14T01:05:22;16.65;;;12.88;;
35522;SDS011;61478;50.820;4.330;2022-10-14T01:08:02;16.35;;;13.60;;
35522;SDS011;61478;50.820;4.330;2022-10-14T01:16:02;19.10;;;13.13;;
35522;SDS011;61478;50.820;4.330;2022-10-14T01:32:15;17.90;;;14.50;;
35522;SDS011;61478;50.820;4.330;2022-10-14T01:37:52;17.45;;;14.30;;
35522;SDS011;61478;50.820;4.330;2022-10-14T01:40:34;18.40;;;14.48;;
35522;SDS011;61478;50.820;4.330;2022-10-14T01:43:06;18.02;;;13.35;;
35522;SDS011;61478;50.820;4.330;2022-10-14T01:45:34;18.83;;;13.57;;
35522;SDS011;61478;50.820;4.330;2022-10-14T01:48:02;16.52;;;13.73;;
35522;SDS011;61478;50.820;4.330;2022-10-14T01:50:31;16.77;;;13.65;;
35522;SDS011;61478;50.820;4.330;2022-10-14T01:53:09;16.13;;;13.77;;
35522;SDS011;61478;50.820;4.330;2022-10-14T01:55:40;15.32;;;13.45;;
35522;SDS011;61478;50.820;4.330;2022-10-14T01:58:09;16.92;;;13.93;;
35522;SDS011;61478;50.820;4.330;2022-10-14T02:00:37;15.80;;;13.60;;
35522;SDS011;61478;50.820;4.330;2022-10-14T02:03:03;14.40;;;12.93;;
35522;SDS011;61478;50.820;4.330;2022-10-14T02:08:28;16.38;;;13.90;;
35522;SDS011;61478;50.820;4.330;2022-10-14T02:11:09;15.00;;;13.30;;
35522;SDS011;61478;50.820;4.330;2022-10-14T02:14:42;16.77;;;13.88;;
35522;SDS011;61478;50.820;4.330;2022-10-14T02:22:03;16.30;;;13.10;;
35522;SDS011;61478;50.820;4.330;2022-10-14T02:24:45;16.95;;;13.65;;
35522;SDS011;61478;50.820;4.330;2022-10-14T02:27:17;14.93;;;12.63;;
35522;SDS011;61478;50.820;4.330;2022-10-14T02:29:45;17.60;;;13.15;;
35522;SDS011;61478;50.820;4.330;2022-10-14T02:32:13;22.30;;;13.02;;
35522;SDS011;61478;50.820;4.330;2022-10-14T02:34:40;14.65;;;12.27;;
35522;SDS011;61478;50.820;4.330;2022-10-14T02:37:11;14.02;;;12.50;;
35522;SDS011;61478;50.820;4.330;2022-10-14T02:39:41;14.02;;;12.52;;
35522;SDS011;61478;50.820;4.330;2022-10-14T02:42:10;19.88;;;12.30;;
35522;SDS011;61478;50.820;4.330;2022-10-14T02:44:36;15.07;;;12.60;;
35522;SDS011;61478;50.820;4.330;2022-10-14T02:47:01;13.98;;;11.98;;
35522;SDS011;61478;50.820;4.330;2022-10-14T02:49:27;16.33;;;11.50;;
35522;SDS011;61478;50.820;4.330;2022-10-14T02:51:53;14.77;;;12.45;;
35522;SDS011;61478;50.820;4.330;2022-10-14T02:54:19;14.27;;;11.98;;
35522;SDS011;61478;50.820;4.330;2022-10-14T02:56:45;15.23;;;11.25;;
35522;SDS011;61478;50.820;4.330;2022-10-14T02:59:11;14.70;;;11.80;;
35522;SDS011;61478;50.820;4.330;2022-10-14T03:01:36;18.23;;;12.18;;
35522;SDS011;61478;50.820;4.330;2022-10-14T03:04:02;13.95;;;12.48;;
35522;SDS011;61478;50.820;4.330;2022-10-14T03:06:28;17.58;;;12.15;;
35522;SDS011;61478;50.820;4.330;2022-10-14T03:08:54;19.45;;;13.32;;
35522;SDS011;61478;50.820;4.330;2022-10-14T03:11:20;15.85;;;11.88;;
35522;SDS011;61478;50.820;4.330;2022-10-14T03:13:46;16.42;;;11.48;;
35522;SDS011;61478;50.820;4.330;2022-10-14T03:16:13;13.45;;;11.95;;
35522;SDS011;61478;50.820;4.330;2022-10-14T03:18:38;13.32;;;10.77;;
35522;SDS011;61478;50.820;4.330;2022-10-14T03:21:04;15.43;;;11.07;;
35522;SDS011;61478;50.820;4.330;2022-10-14T03:23:30;14.77;;;10.25;;
35522;SDS011;61478;50.820;4.330;2022-10-14T03:25:56;12.07;;;10.80;;
35522;SDS011;61478;50.820;4.330;2022-10-14T03:28:22;13.35;;;10.50;;
35522;SDS011;61478;50.820;4.330;2022-10-14T03:30:47;13.35;;;11.25;;
35522;SDS011;61478;50.820;4.330;2022-10-14T03:33:13;13.85;;;10.82;;
35522;SDS011;61478;50.820;4.330;2022-10-14T03:35:39;12.70;;;10.38;;
35522;SDS011;61478;50.820;4.330;2022-10-14T03:38:05;12.50;;;11.15;;
35522;SDS011;61478;50.820;4.330;2022-10-14T03:40:31;13.85;;;11.63;;
35522;SDS011;61478;50.820;4.330;2022-10-14T03:42:57;13.63;;;11.35;;
35522;SDS011;61478;50.820;4.330;2022-10-14T03:45:25;13.50;;;11.60;;
35522;SDS011;61478;50.820;4.330;2022-10-14T03:47:52;15.85;;;11.40;;
35522;SDS011;61478;50.820;4.330;2022-10-14T03:50:18;14.73;;;11.70;;
35522;SDS011;61478;50.820;4.330;2022-10-14T03:52:44;15.43;;;12.57;;
35522;SDS011;61478;50.820;4.330;2022-10-14T03:55:10;17.05;;;11.40;;
35522;SDS011;61478;50.820;4.330;2022-10-14T03:57:36;18.33;;;12.68;;
35522;SDS011;61478;50.820;4.330;2022-10-14T04:00:03;19.80;;;13.93;;
35522;SDS011;61478;50.820;4.330;2022-10-14T04:02:29;19.98;;;12.95;;
35522;SDS011;61478;50.820;4.330;2022-10-14T04:04:55;14.70;;;12.38;;
35522;SDS011;61478;50.820;4.330;2022-10-14T04:07:21;16.38;;;11.90;;
35522;SDS011;61478;50.820;4.330;2022-10-14T04:09:47;14.70;;;12.27;;
35522;SDS011;61478;50.820;4.330;2022-10-14T04:12:13;14.52;;;12.35;;
35522;SDS011;61478;50.820;4.330;2022-10-14T04:14:39;14.68;;;11.65;;
35522;SDS011;61478;50.820;4.330;2022-10-14T04:17:05;15.13;;;12.00;;
35522;SDS011;61478;50.820;4.330;2022-10-14T04:19:31;29.63;;;21.70;;
35522;SDS011;61478;50.820;4.330;2022-10-14T04:21:57;17.35;;;12.60;;
35522;SDS011;61478;50.820;4.330;2022-10-14T04:24:23;15.25;;;11.60;;
35522;SDS011;61478;50.820;4.330;2022-10-14T04:26:49;16.25;;;12.30;;
35522;SDS011;61478;50.820;4.330;2022-10-14T04:29:16;19.08;;;12.82;;
35522;SDS011;61478;50.820;4.330;2022-10-14T04:31:42;16.48;;;12.90;;
35522;SDS011;61478;50.820;4.330;2022-10-14T04:34:09;17.95;;;12.25;;
35522;SDS011;61478;50.820;4.330;2022-10-14T04:36:35;18.15;;;13.18;;
35522;SDS011;61478;50.820;4.330;2022-10-14T04:39:01;16.92;;;12.45;;
35522;SDS011;61478;50.820;4.330;2022-10-14T04:41:27;13.20;;;11.35;;
35522;SDS011;61478;50.820;4.330;2022-10-14T04:43:53;19.20;;;12.27;;
35522;SDS011;61478;50.820;4.330;2022-10-14T04:46:19;19.05;;;12.35;;
35522;SDS011;61478;50.820;4.330;2022-10-14T04:48:48;15.23;;;12.32;;
35522;SDS011;61478;50.820;4.330;2022-10-14T04:51:14;17.73;;;12.20;;
35522;SDS011;61478;50.820;4.330;2022-10-14T04:53:40;20.08;;;13.10;;
35522;SDS011;61478;50.820;4.330;2022-10-14T04:56:06;20.63;;;12.48;;
35522;SDS011;61478;50.820;4.330;2022-10-14T04:58:32;18.35;;;12.05;;
35522;SDS011;61478;50.820;4.330;2022-10-14T05:00:57;19.40;;;12.57;;
35522;SDS011;61478;50.820;4.330;2022-10-14T05:03:23;17.50;;;12.77;;
35522;SDS011;61478;50.820;4.330;2022-10-14T05:05:49;17.45;;;12.40;;
35522;SDS011;61478;50.820;4.330;2022-10-14T05:08:16;20.92;;;13.52;;
35522;SDS011;61478;50.820;4.330;2022-10-14T05:10:42;18.60;;;13.13;;
35522;SDS011;61478;50.820;4.330;2022-10-14T05:13:08;16.42;;;12.60;;
35522;SDS011;61478;50.820;4.330;2022-10-14T05:15:34;22.08;;;12.90;;
35522;SDS011;61478;50.820;4.330;2022-10-14T05:18:00;18.92;;;12.32;;
35522;SDS011;61478;50.820;4.330;2022-10-14T05:20:25;17.92;;;13.45;;
35522;SDS011;61478;50.820;4.330;2022-10-14T05:22:51;21.77;;;13.57;;
35522;SDS011;61478;50.820;4.330;2022-10-14T05:25:18;18.45;;;13.20;;
35522;SDS011;61478;50.820;4.330;2022-10-14T05:27:44;17.02;;;13.40;;
35522;SDS011;61478;50.820;4.330;2022-10-14T05:30:10;21.67;;;13.15;;
35522;SDS011;61478;50.820;4.330;2022-10-14T05:32:36;18.73;;;13.48;;
35522;SDS011;61478;50.820;4.330;2022-10-14T05:35:03;18.15;;;12.90;;
35522;SDS011;61478;50.820;4.330;2022-10-14T05:37:29;19.40;;;12.35;;
35522;SDS011;61478;50.820;4.330;2022-10-14T05:39:55;17.23;;;12.32;;
35522;SDS011;61478;50.820;4.330;2022-10-14T05:42:21;17.40;;;12.65;;
35522;SDS011;61478;50.820;4.330;2022-10-14T05:44:47;15.55;;;12.27;;
35522;SDS011;61478;50.820;4.330;2022-10-14T05:47:12;20.08;;;12.55;;
35522;SDS011;61478;50.820;4.330;2022-10-14T05:49:39;19.88;;;12.65;;
35522;SDS011;61478;50.820;4.330;2022-10-14T05:52:05;18.15;;;12.63;;
35522;SDS011;61478;50.820;4.330;2022-10-14T05:54:30;19.58;;;14.18;;
35522;SDS011;61478;50.820;4.330;2022-10-14T05:56:56;22.50;;;11.82;;
35522;SDS011;61478;50.820;4.330;2022-10-14T05:59:22;19.33;;;11.98;;
35522;SDS011;61478;50.820;4.330;2022-10-14T06:01:48;15.88;;;12.05;;
35522;SDS011;61478;50.820;4.330;2022-10-14T06:04:17;17.33;;;12.15;;
35522;SDS011;61478;50.820;4.330;2022-10-14T06:06:45;17.60;;;12.50;;
35522;SDS011;61478;50.820;4.330;2022-10-14T06:09:11;17.83;;;13.10;;
35522;SDS011;61478;50.820;4.330;2022-10-14T06:11:37;21.20;;;13.10;;
35522;SDS011;61478;50.820;4.330;2022-10-14T06:14:03;18.05;;;12.45;;
35522;SDS011;61478;50.820;4.330;2022-10-14T06:16:29;19.67;;;12.98;;
35522;SDS011;61478;50.820;4.330;2022-10-14T06:18:55;20.70;;;12.43;;
35522;SDS011;61478;50.820;4.330;2022-10-14T06:21:22;16.63;;;12.95;;
35522;SDS011;61478;50.820;4.330;2022-10-14T06:23:47;19.88;;;13.45;;
35522;SDS011;61478;50.820;4.330;2022-10-14T06:26:13;18.55;;;12.68;;
35522;SDS011;61478;50.820;4.330;2022-10-14T06:28:39;18.83;;;13.13;;
35522;SDS011;61478;50.820;4.330;2022-10-14T06:31:05;20.73;;;13.80;;
35522;SDS011;61478;50.820;4.330;2022-10-14T06:33:31;22.40;;;13.05;;
35522;SDS011;61478;50.820;4.330;2022-10-14T06:35:57;17.02;;;13.65;;
35522;SDS011;61478;50.820;4.330;2022-10-14T06:38:25;24.50;;;14.23;;
35522;SDS011;61478;50.820;4.330;2022-10-14T06:40:52;19.88;;;13.32;;
35522;SDS011;61478;50.820;4.330;2022-10-14T06:43:19;16.95;;;13.73;;
35522;SDS011;61478;50.820;4.330;2022-10-14T06:45:45;16.85;;;13.07;;
35522;SDS011;61478;50.820;4.330;2022-10-14T06:48:12;18.70;;;13.30;;
35522;SDS011;61478;50.820;4.330;2022-10-14T06:50:41;18.63;;;13.55;;
35522;SDS011;61478;50.820;4.330;2022-10-14T06:53:08;15.68;;;12.82;;
35522;SDS011;61478;50.820;4.330;2022-10-14T06:55:34;20.27;;;12.90;;
35522;SDS011;61478;50.820;4.330;2022-10-14T06:58:00;15.18;;;12.10;;
35522;SDS011;61478;50.820;4.330;2022-10-14T07:00:26;16.30;;;12.80;;
35522;SDS011;61478;50.820;4.330;2022-10-14T07:02:52;15.75;;;12.20;;
35522;SDS011;61478;50.820;4.330;2022-10-14T07:05:18;18.63;;;12.80;;
35522;SDS011;61478;50.820;4.330;2022-10-14T07:07:43;13.65;;;11.10;;
35522;SDS011;61478;50.820;4.330;2022-10-14T07:10:09;15.48;;;12.48;;
35522;SDS011;61478;50.820;4.330;2022-10-14T07:12:35;15.35;;;11.60;;
35522;SDS011;61478;50.820;4.330;2022-10-14T07:15:01;14.38;;;11.95;;
35522;SDS011;61478;50.820;4.330;2022-10-14T07:17:28;17.58;;;12.05;;
35522;SDS011;61478;50.820;4.330;2022-10-14T07:19:54;16.98;;;11.68;;
35522;SDS011;61478;50.820;4.330;2022-10-14T07:22:21;15.80;;;11.80;;
35522;SDS011;61478;50.820;4.330;2022-10-14T07:24:47;16.35;;;11.57;;
35522;SDS011;61478;50.820;4.330;2022-10-14T07:27:13;14.43;;;10.60;;
35522;SDS011;61478;50.820;4.330;2022-10-14T07:29:40;16.83;;;10.80;;
35522;SDS011;61478;50.820;4.330;2022-10-14T07:32:06;17.02;;;11.80;;
35522;SDS011;61478;50.820;4.330;2022-10-14T07:34:32;16.40;;;10.80;;
35522;SDS011;61478;50.820;4.330;2022-10-14T07:36:59;16.08;;;11.65;;
35522;SDS011;61478;50.820;4.330;2022-10-14T07:39:25;20.42;;;12.38;;
35522;SDS011;61478;50.820;4.330;2022-10-14T07:41:51;13.45;;;10.18;;
35522;SDS011;61478;50.820;4.330;2022-10-14T07:44:18;14.07;;;11.38;;
35522;SDS011;61478;50.820;4.330;2022-10-14T07:46:45;14.38;;;10.60;;
35522;SDS011;61478;50.820;4.330;2022-10-14T07:49:12;15.32;;;9.90;;
35522;SDS011;61478;50.820;4.330;2022-10-14T07:51:40;13.48;;;10.15;;
35522;SDS011;61478;50.820;4.330;2022-10-14T07:54:07;11.40;;;9.15;;
35522;SDS011;61478;50.820;4.330;2022-10-14T07:56:38;14.43;;;10.15;;
35522;SDS011;61478;50.820;4.330;2022-10-14T07:59:06;14.05;;;9.48;;
35522;SDS011;61478;50.820;4.330;2022-10-14T08:01:32;9.07;;;8.10;;
35522;SDS011;61478;50.820;4.330;2022-10-14T08:03:58;12.18;;;8.85;;
35522;SDS011;61478;50.820;4.330;2022-10-14T08:06:25;11.32;;;8.57;;
35522;SDS011;61478;50.820;4.330;2022-10-14T08:08:54;9.60;;;8.13;;
35522;SDS011;61478;50.820;4.330;2022-10-14T08:11:21;8.75;;;7.85;;
35522;SDS011;61478;50.820;4.330;2022-10-14T08:13:52;9.90;;;8.05;;
35522;SDS011;61478;50.820;4.330;2022-10-14T08:16:25;9.75;;;7.60;;
35522;SDS011;61478;50.820;4.330;2022-10-14T08:18:55;9.10;;;7.25;;
35522;SDS011;61478;50.820;4.330;2022-10-14T08:21:23;9.43;;;7.40;;
35522;SDS011;61478;50.820;4.330;2022-10-14T08:23:50;11.60;;;7.60;;
35522;SDS011;61478;50.820;4.330;2022-10-14T08:26:20;7.65;;;6.88;;
35522;SDS011;61478;50.820;4.330;2022-10-14T08:28:47;10.23;;;6.47;;
35522;SDS011;61478;50.820;4.330;2022-10-14T08:31:14;8.70;;;5.78;;
35522;SDS011;61478;50.820;4.330;2022-10-14T08:33:43;7.43;;;6.60;;
35522;SDS011;61478;50.820;4.330;2022-10-14T08:36:09;13.10;;;8.45;;
35522;SDS011;61478;50.820;4.330;2022-10-14T08:38:36;6.50;;;5.90;;
35522;SDS011;61478;50.820;4.330;2022-10-14T08:51:59;9.23;;;5.65;;
35522;SDS011;61478;50.820;4.330;2022-10-14T08:54:50;9.07;;;5.78;;
35522;SDS011;61478;50.820;4.330;2022-10-14T08:57:19;9.15;;;6.65;;
35522;SDS011;61478;50.820;4.330;2022-10-14T08:59:49;9.13;;;5.20;;
35522;SDS011;61478;50.820;4.330;2022-10-14T09:05:01;6.03;;;4.88;;
35522;SDS011;61478;50.820;4.330;2022-10-14T09:07:29;9.57;;;5.20;;
35522;SDS011;61478;50.820;4.330;2022-10-14T09:09:59;6.60;;;4.68;;
35522;SDS011;61478;50.820;4.330;2022-10-14T09:12:32;6.07;;;5.15;;
35522;SDS011;61478;50.820;4.330;2022-10-14T09:17:30;8.18;;;5.22;;
35522;SDS011;61478;50.820;4.330;2022-10-14T09:20:02;8.30;;;4.80;;
35522;SDS011;61478;50.820;4.330;2022-10-14T09:22:39;10.45;;;4.95;;
35522;SDS011;61478;50.820;4.330;2022-10-14T09:25:14;10.52;;;4.90;;
35522;SDS011;61478;50.820;4.330;2022-10-14T09:27:41;8.68;;;4.93;;
35522;SDS011;61478;50.820;4.330;2022-10-14T09:30:16;8.02;;;4.80;;
35522;SDS011;61478;50.820;4.330;2022-10-14T09:32:49;7.68;;;4.28;;
35522;SDS011;61478;50.820;4.330;2022-10-14T09:35:39;9.70;;;4.10;;
35522;SDS011;61478;50.820;4.330;2022-10-14T09:38:06;4.65;;;3.50;;
35522;SDS011;61478;50.820;4.330;2022-10-14T09:40:36;4.80;;;3.08;;
35522;SDS011;61478;50.820;4.330;2022-10-14T09:45:52;3.80;;;3.40;;
35522;SDS011;61478;50.820;4.330;2022-10-14T09:48:29;4.10;;;3.15;;
35522;SDS011;61478;50.820;4.330;2022-10-14T09:50:59;7.25;;;3.42;;
35522;SDS011;61478;50.820;4.330;2022-10-14T09:56:07;4.50;;;3.63;;
35522;SDS011;61478;50.820;4.330;2022-10-14T09:58:49;6.00;;;3.78;;
35522;SDS011;61478;50.820;4.330;2022-10-14T10:01:25;5.35;;;4.07;;
35522;SDS011;61478;50.820;4.330;2022-10-14T10:04:51;5.75;;;4.18;;
35522;SDS011;61478;50.820;4.330;2022-10-14T10:06:55;6.78;;;4.38;;
35522;SDS011;61478;50.820;4.330;2022-10-14T10:09:23;6.05;;;4.30;;
35522;SDS011;61478;50.820;4.330;2022-10-14T10:11:49;6.78;;;4.80;;
35522;SDS011;61478;50.820;4.330;2022-10-14T10:16:44;9.60;;;4.97;;
35522;SDS011;61478;50.820;4.330;2022-10-14T10:19:35;11.15;;;5.97;;
35522;SDS011;61478;50.820;4.330;2022-10-14T10:22:21;5.63;;;5.03;;
35522;SDS011;61478;50.820;4.330;2022-10-14T10:27:27;10.60;;;8.10;;
35522;SDS011;61478;50.820;4.330;2022-10-14T10:29:53;6.18;;;5.32;;
35522;SDS011;61478;50.820;4.330;2022-10-14T10:32:32;6.13;;;5.53;;
35522;SDS011;61478;50.820;4.330;2022-10-14T10:43:33;11.88;;;6.47;;
35522;SDS011;61478;50.820;4.330;2022-10-14T10:49:04;10.32;;;7.55;;
35522;SDS011;61478;50.820;4.330;2022-10-14T10:52:02;7.85;;;6.72;;
35522;SDS011;61478;50.820;4.330;2022-10-14T10:54:38;12.80;;;8.85;;
35522;SDS011;61478;50.820;4.330;2022-10-14T11:00:19;12.85;;;9.18;;
35522;SDS011;61478;50.820;4.330;2022-10-14T11:02:54;9.07;;;7.97;;
35522;SDS011;61478;50.820;4.330;2022-10-14T11:08:22;8.80;;;7.00;;
35522;SDS011;61478;50.820;4.330;2022-10-14T11:17:04;9.45;;;6.90;;
35522;SDS011;61478;50.820;4.330;2022-10-14T11:22:56;7.90;;;6.63;;
35522;SDS011;61478;50.820;4.330;2022-10-14T11:25:35;8.43;;;6.50;;
35522;SDS011;61478;50.820;4.330;2022-10-14T11:28:27;7.72;;;6.40;;
35522;SDS011;61478;50.820;4.330;2022-10-14T11:36:31;9.88;;;6.90;;
35522;SDS011;61478;50.820;4.330;2022-10-14T11:39:18;10.23;;;6.35;;
35522;SDS011;61478;50.820;4.330;2022-10-14T11:44:39;8.88;;;8.05;;
35522;SDS011;61478;50.820;4.330;2022-10-14T11:47:09;8.55;;;7.75;;
35522;SDS011;61478;50.820;4.330;2022-10-14T11:50:11;17.17;;;9.77;;
35522;SDS011;61478;50.820;4.330;2022-10-14T11:52:49;10.75;;;9.15;;
35522;SDS011;61478;50.820;4.330;2022-10-14T11:55:38;14.93;;;11.15;;
35522;SDS011;61478;50.820;4.330;2022-10-14T11:58:16;14.15;;;11.93;;
35522;SDS011;61478;50.820;4.330;2022-10-14T12:00:47;13.90;;;12.02;;
35522;SDS011;61478;50.820;4.330;2022-10-14T12:06:39;13.05;;;11.45;;
35522;SDS011;61478;50.820;4.330;2022-10-14T12:09:21;13.82;;;12.23;;
35522;SDS011;61478;50.820;4.330;2022-10-14T12:12:00;14.85;;;11.95;;
35522;SDS011;61478;50.820;4.330;2022-10-14T12:14:33;15.35;;;12.75;;
35522;SDS011;61478;50.820;4.330;2022-10-14T12:17:23;14.50;;;12.63;;
35522;SDS011;61478;50.820;4.330;2022-10-14T12:19:54;15.15;;;13.23;;
35522;SDS011;61478;50.820;4.330;2022-10-14T12:22:22;14.25;;;12.55;;
35522;SDS011;61478;50.820;4.330;2022-10-14T12:24:56;17.48;;;13.50;;
35522;SDS011;61478;50.820;4.330;2022-10-14T12:27:26;16.05;;;12.90;;
35522;SDS011;61478;50.820;4.330;2022-10-14T12:29:54;18.88;;;13.45;;
35522;SDS011;61478;50.820;4.330;2022-10-14T12:32:23;18.00;;;13.93;;
35522;SDS011;61478;50.820;4.330;2022-10-14T12:34:54;18.77;;;12.35;;
35522;SDS011;61478;50.820;4.330;2022-10-14T12:45:00;12.95;;;11.57;;
35522;SDS011;61478;50.820;4.330;2022-10-14T12:47:38;19.67;;;11.95;;
35522;SDS011;61478;50.820;4.330;2022-10-14T12:52:43;15.23;;;13.40;;
35522;SDS011;61478;50.820;4.330;2022-10-14T12:55:14;16.05;;;13.85;;
35522;SDS011;61478;50.820;4.330;2022-10-14T12:57:42;19.80;;;13.32;;
35522;SDS011;61478;50.820;4.330;2022-10-14T13:03:35;18.58;;;10.38;;
35522;SDS011;61478;50.820;4.330;2022-10-14T13:05:48;15.30;;;11.73;;
35522;SDS011;61478;50.820;4.330;2022-10-14T13:10:44;11.57;;;10.43;;
35522;SDS011;61478;50.820;4.330;2022-10-14T13:18:54;13.82;;;10.93;;
35522;SDS011;61478;50.820;4.330;2022-10-14T13:29:14;13.10;;;10.70;;
35522;SDS011;61478;50.820;4.330;2022-10-14T13:34:35;11.98;;;10.88;;
35522;SDS011;61478;50.820;4.330;2022-10-14T13:37:24;12.48;;;9.98;;
35522;SDS011;61478;50.820;4.330;2022-10-14T13:42:57;11.70;;;10.60;;
35522;SDS011;61478;50.820;4.330;2022-10-14T13:45:31;13.32;;;11.20;;
35522;SDS011;61478;50.820;4.330;2022-10-14T13:48:03;13.95;;;11.65;;
35522;SDS011;61478;50.820;4.330;2022-10-14T13:50:34;14.05;;;10.52;;
35522;SDS011;61478;50.820;4.330;2022-10-14T13:53:10;12.80;;;10.85;;
35522;SDS011;61478;50.820;4.330;2022-10-14T13:55:42;13.45;;;11.60;;
35522;SDS011;61478;50.820;4.330;2022-10-14T13:58:10;14.65;;;10.68;;
35522;SDS011;61478;50.820;4.330;2022-10-14T14:03:34;19.20;;;10.60;;
35522;SDS011;61478;50.820;4.330;2022-10-14T14:06:02;13.07;;;10.73;;
35522;SDS011;61478;50.820;4.330;2022-10-14T14:08:57;15.10;;;10.85;;
35522;SDS011;61478;50.820;4.330;2022-10-14T14:11:26;11.65;;;10.15;;
35522;SDS011;61478;50.820;4.330;2022-10-14T14:14:07;18.60;;;11.52;;
35522;SDS011;61478;50.820;4.330;2022-10-14T14:17:03;13.73;;;10.10;;
35522;SDS011;61478;50.820;4.330;2022-10-14T14:19:32;12.93;;;10.18;;
35522;SDS011;61478;50.820;4.330;2022-10-14T14:22:07;11.40;;;7.43;;
35522;SDS011;61478;50.820;4.330;2022-10-14T14:24:40;14.32;;;8.52;;
35522;SDS011;61478;50.820;4.330;2022-10-14T14:27:13;10.95;;;8.57;;
35522;SDS011;61478;50.820;4.330;2022-10-14T14:32:14;15.48;;;9.00;;
35522;SDS011;61478;50.820;4.330;2022-10-14T14:34:43;14.88;;;9.10;;
35522;SDS011;61478;50.820;4.330;2022-10-14T14:37:30;19.95;;;12.95;;
35522;SDS011;61478;50.820;4.330;2022-10-14T14:42:40;21.50;;;11.70;;
35522;SDS011;61478;50.820;4.330;2022-10-14T14:45:18;17.45;;;10.77;;
35522;SDS011;61478;50.820;4.330;2022-10-14T14:47:54;14.63;;;12.05;;
35522;SDS011;61478;50.820;4.330;2022-10-14T14:50:26;13.82;;;9.35;;
35522;SDS011;61478;50.820;4.330;2022-10-14T14:53:00;17.25;;;10.45;;
35522;SDS011;61478;50.820;4.330;2022-10-14T14:55:45;15.82;;;9.15;;
35522;SDS011;61478;50.820;4.330;2022-10-14T15:00:51;13.70;;;9.85;;
35522;SDS011;61478;50.820;4.330;2022-10-14T15:03:19;17.67;;;9.38;;
35522;SDS011;61478;50.820;4.330;2022-10-14T15:06:23;20.60;;;10.35;;
35522;SDS011;61478;50.820;4.330;2022-10-14T15:08:46;13.25;;;8.80;;
35522;SDS011;61478;50.820;4.330;2022-10-14T15:11:14;23.13;;;11.90;;
35522;SDS011;61478;50.820;4.330;2022-10-14T15:13:43;16.52;;;8.75;;
35522;SDS011;61478;50.820;4.330;2022-10-14T15:16:13;12.95;;;8.23;;
35522;SDS011;61478;50.820;4.330;2022-10-14T15:21:45;18.23;;;8.68;;
35522;SDS011;61478;50.820;4.330;2022-10-14T15:24:15;19.88;;;9.23;;
35522;SDS011;61478;50.820;4.330;2022-10-14T15:26:44;10.50;;;7.20;;
35522;SDS011;61478;50.820;4.330;2022-10-14T15:29:17;11.85;;;7.47;;
35522;SDS011;61478;50.820;4.330;2022-10-14T15:32:09;12.43;;;7.13;;
35522;SDS011;61478;50.820;4.330;2022-10-14T15:34:38;16.45;;;6.90;;
35522;SDS011;61478;50.820;4.330;2022-10-14T15:37:04;13.20;;;6.60;;
35522;SDS011;61478;50.820;4.330;2022-10-14T15:39:30;21.50;;;6.88;;
35522;SDS011;61478;50.820;4.330;2022-10-14T15:41:56;10.85;;;5.75;;
35522;SDS011;61478;50.820;4.330;2022-10-14T15:44:22;6.80;;;5.00;;
35522;SDS011;61478;50.820;4.330;2022-10-14T15:46:51;5.60;;;4.95;;
35522;SDS011;61478;50.820;4.330;2022-10-14T15:49:36;11.85;;;5.53;;
35522;SDS011;61478;50.820;4.330;2022-10-14T15:52:05;9.18;;;5.03;;
35522;SDS011;61478;50.820;4.330;2022-10-14T15:54:31;13.95;;;5.10;;
35522;SDS011;61478;50.820;4.330;2022-10-14T15:56:58;6.03;;;4.45;;
35522;SDS011;61478;50.820;4.330;2022-10-14T15:59:24;21.52;;;5.68;;
35522;SDS011;61478;50.820;4.330;2022-10-14T16:01:51;13.52;;;4.70;;
35522;SDS011;61478;50.820;4.330;2022-10-14T16:04:18;9.18;;;4.88;;
35522;SDS011;61478;50.820;4.330;2022-10-14T16:06:49;16.83;;;5.40;;
35522;SDS011;61478;50.820;4.330;2022-10-14T16:09:19;10.25;;;4.93;;
35522;SDS011;61478;50.820;4.330;2022-10-14T16:11:46;10.45;;;4.28;;
35522;SDS011;61478;50.820;4.330;2022-10-14T16:14:13;24.20;;;5.22;;
35522;SDS011;61478;50.820;4.330;2022-10-14T16:16:41;9.70;;;4.50;;
35522;SDS011;61478;50.820;4.330;2022-10-14T16:19:10;22.83;;;4.53;;
35522;SDS011;61478;50.820;4.330;2022-10-14T16:21:36;17.52;;;4.68;;
35522;SDS011;61478;50.820;4.330;2022-10-14T16:24:04;17.30;;;5.63;;
35522;SDS011;61478;50.820;4.330;2022-10-14T16:26:31;23.98;;;5.55;;
35522;SDS011;61478;50.820;4.330;2022-10-14T16:28:59;21.30;;;5.60;;
35522;SDS011;61478;50.820;4.330;2022-10-14T16:31:27;17.67;;;6.13;;
35522;SDS011;61478;50.820;4.330;2022-10-14T16:33:54;23.83;;;5.15;;
35522;SDS011;61478;50.820;4.330;2022-10-14T16:36:20;12.55;;;4.53;;
35522;SDS011;61478;50.820;4.330;2022-10-14T16:38:47;15.02;;;4.57;;
35522;SDS011;61478;50.820;4.330;2022-10-14T16:41:14;19.52;;;5.30;;
35522;SDS011;61478;50.820;4.330;2022-10-14T16:43:40;14.25;;;5.32;;
35522;SDS011;61478;50.820;4.330;2022-10-14T16:46:06;24.95;;;5.70;;
35522;SDS011;61478;50.820;4.330;2022-10-14T16:48:33;20.50;;;6.07;;
35522;SDS011;61478;50.820;4.330;2022-10-14T16:51:00;23.38;;;5.70;;
35522;SDS011;61478;50.820;4.330;2022-10-14T16:53:29;11.77;;;5.55;;
35522;SDS011;61478;50.820;4.330;2022-10-14T16:56:05;13.75;;;5.75;;
35522;SDS011;61478;50.820;4.330;2022-10-14T16:58:54;14.52;;;5.93;;
35522;SDS011;61478;50.820;4.330;2022-10-14T17:01:21;14.55;;;5.53;;
35522;SDS011;61478;50.820;4.330;2022-10-14T17:03:48;21.35;;;5.35;;
35522;SDS011;61478;50.820;4.330;2022-10-14T17:06:14;16.45;;;5.68;;
35522;SDS011;61478;50.820;4.330;2022-10-14T17:08:40;9.77;;;5.53;;